sensor_id;sensor_type;location;lat;lon;timestamp;pressure;altitude;pressure_sealevel;temperature;humidity
17362;BME280;8798;51.938;4.348;2023-03-01T00:01:15;102502.13;;;2.59;62.48
17362;BME280;8798;51.938;4.348;2023-03-01T00:03:44;102510.19;;;2.58;62.54
17362;BME280;8798;51.938;4.348;2023-03-01T00:06:12;102505.84;;;2.55;62.38
17362;BME280;8798;51.938;4.348;2023-03-01T00:08:40;102503.31;;;2.52;62.46
17362;BME280;8798;51.938;4.348;2023-03-01T00:11:10;102498.13;;;2.49;63.45
17362;BME280;8798;51.938;4.348;2023-03-01T00:13:41;102492.97;;;2.45;62.67
17362;BME280;8798;51.938;4.348;2023-03-01T00:16:12;102497.50;;;2.43;62.80
17362;BME280;8798;51.938;4.348;2023-03-01T00:18:41;102498.41;;;2.42;62.27
17362;BME280;8798;51.938;4.348;2023-03-01T00:21:12;102498.50;;;2.40;62.93
17362;BME280;8798;51.938;4.348;2023-03-01T00:23:40;102488.91;;;2.36;63.16
17362;BME280;8798;51.938;4.348;2023-03-01T00:26:09;102489.03;;;2.33;62.58
17362;BME280;8798;51.938;4.348;2023-03-01T00:28:37;102483.81;;;2.30;63.05
17362;BME280;8798;51.938;4.348;2023-03-01T00:31:09;102472.47;;;2.26;63.75
17362;BME280;8798;51.938;4.348;2023-03-01T00:33:37;102473.50;;;2.22;63.36
17362;BME280;8798;51.938;4.348;2023-03-01T00:36:06;102464.78;;;2.20;62.88
17362;BME280;8798;51.938;4.348;2023-03-01T00:38:34;102457.84;;;2.16;63.76
17362;BME280;8798;51.938;4.348;2023-03-01T00:41:04;102460.63;;;2.13;62.87
17362;BME280;8798;51.938;4.348;2023-03-01T00:43:32;102454.56;;;2.09;63.01
17362;BME280;8798;51.938;4.348;2023-03-01T00:46:04;102449.38;;;2.06;63.06
17362;BME280;8798;51.938;4.348;2023-03-01T00:48:34;102450.41;;;2.02;63.10
17362;BME280;8798;51.938;4.348;2023-03-01T00:51:07;102446.94;;;2.00;63.74
17362;BME280;8798;51.938;4.348;2023-03-01T00:53:35;102436.47;;;1.97;63.77
17362;BME280;8798;51.938;4.348;2023-03-01T00:56:05;102446.25;;;1.95;63.53
17362;BME280;8798;51.938;4.348;2023-03-01T00:58:34;102448.97;;;1.93;63.57
17362;BME280;8798;51.938;4.348;2023-03-01T01:01:07;102450.75;;;1.93;63.30
17362;BME280;8798;51.938;4.348;2023-03-01T01:03:46;102450.84;;;1.90;63.29
17362;BME280;8798;51.938;4.348;2023-03-01T01:06:16;102453.56;;;1.88;63.18
17362;BME280;8798;51.938;4.348;2023-03-01T01:08:44;102442.19;;;1.85;63.80
17362;BME280;8798;51.938;4.348;2023-03-01T01:11:12;102454.59;;;1.84;63.48
17362;BME280;8798;51.938;4.348;2023-03-01T01:13:41;102444.03;;;1.83;64.57
17362;BME280;8798;51.938;4.348;2023-03-01T01:16:09;102453.91;;;1.79;63.48
17362;BME280;8798;51.938;4.348;2023-03-01T01:18:37;102450.50;;;1.76;64.21
17362;BME280;8798;51.938;4.348;2023-03-01T01:21:08;102451.41;;;1.75;64.73
17362;BME280;8798;51.938;4.348;2023-03-01T01:23:36;102449.72;;;1.72;64.34
17362;BME280;8798;51.938;4.348;2023-03-01T01:26:06;102452.41;;;1.70;63.62
17362;BME280;8798;51.938;4.348;2023-03-01T01:28:34;102458.66;;;1.69;64.03
17362;BME280;8798;51.938;4.348;2023-03-01T01:31:03;102466.59;;;1.69;64.71
17362;BME280;8798;51.938;4.348;2023-03-01T01:33:31;102457.84;;;1.67;64.25
17362;BME280;8798;51.938;4.348;2023-03-01T01:35:59;102457.03;;;1.65;63.86
17362;BME280;8798;51.938;4.348;2023-03-01T01:38:28;102462.38;;;1.64;64.32
17362;BME280;8798;51.938;4.348;2023-03-01T01:40:57;102470.38;;;1.62;64.94
17362;BME280;8798;51.938;4.348;2023-03-01T01:43:26;102461.63;;;1.60;64.27
17362;BME280;8798;51.938;4.348;2023-03-01T01:45:55;102468.75;;;1.58;65.24
17362;BME280;8798;51.938;4.348;2023-03-01T01:48:29;102466.22;;;1.55;64.15
17362;BME280;8798;51.938;4.348;2023-03-01T01:51:10;102469.78;;;1.54;65.32
17362;BME280;8798;51.938;4.348;2023-03-01T01:53:40;102470.69;;;1.53;64.82
17362;BME280;8798;51.938;4.348;2023-03-01T01:56:11;102469.00;;;1.50;64.19
17362;BME280;8798;51.938;4.348;2023-03-01T01:58:42;102470.88;;;1.48;64.26
17362;BME280;8798;51.938;4.348;2023-03-01T02:01:11;102475.34;;;1.46;64.34
17362;BME280;8798;51.938;4.348;2023-03-01T02:03:41;102477.13;;;1.46;64.98
17362;BME280;8798;51.938;4.348;2023-03-01T02:06:18;102473.69;;;1.44;65.39
17362;BME280;8798;51.938;4.348;2023-03-01T02:08:49;102478.16;;;1.42;65.25
17362;BME280;8798;51.938;4.348;2023-03-01T02:11:20;102472.91;;;1.40;64.59
17362;BME280;8798;51.938;4.348;2023-03-01T02:13:48;102476.47;;;1.39;65.31
17362;BME280;8798;51.938;4.348;2023-03-01T02:16:17;102474.72;;;1.38;65.55
17362;BME280;8798;51.938;4.348;2023-03-01T02:18:45;102474.84;;;1.35;65.38
17362;BME280;8798;51.938;4.348;2023-03-01T02:21:38;102480.13;;;1.35;65.49
17362;BME280;8798;51.938;4.348;2023-03-01T02:24:19;102478.44;;;1.33;64.91
17362;BME280;8798;51.938;4.348;2023-03-01T02:26:55;102476.78;;;1.30;64.99
17362;BME280;8798;51.938;4.348;2023-03-01T02:29:26;102477.75;;;1.27;65.17
17362;BME280;8798;51.938;4.348;2023-03-01T02:31:56;102483.97;;;1.26;66.05
17362;BME280;8798;51.938;4.348;2023-03-01T02:34:26;102476.06;;;1.25;64.79
17362;BME280;8798;51.938;4.348;2023-03-01T02:36:58;102483.16;;;1.24;65.76
17362;BME280;8798;51.938;4.348;2023-03-01T02:39:30;102488.44;;;1.24;65.94
17362;BME280;8798;51.938;4.348;2023-03-01T02:42:01;102490.25;;;1.22;65.02
17362;BME280;8798;51.938;4.348;2023-03-01T02:44:31;102493.84;;;1.21;65.66
17362;BME280;8798;51.938;4.348;2023-03-01T02:47:02;102497.38;;;1.20;65.42
17362;BME280;8798;51.938;4.348;2023-03-01T02:49:32;102498.31;;;1.19;65.20
17362;BME280;8798;51.938;4.348;2023-03-01T02:52:08;102498.34;;;1.18;65.33
17362;BME280;8798;51.938;4.348;2023-03-01T02:54:44;102490.56;;;1.13;65.17
17362;BME280;8798;51.938;4.348;2023-03-01T02:57:14;102491.50;;;1.12;65.47
17362;BME280;8798;51.938;4.348;2023-03-01T02:59:44;102493.31;;;1.10;66.34
17362;BME280;8798;51.938;4.348;2023-03-01T03:02:19;102496.88;;;1.09;66.00
17362;BME280;8798;51.938;4.348;2023-03-01T03:05:08;102490.81;;;1.05;65.94
17362;BME280;8798;51.938;4.348;2023-03-01T03:07:38;102479.41;;;1.03;65.89
17362;BME280;8798;51.938;4.348;2023-03-01T03:10:09;102476.88;;;1.00;65.81
17362;BME280;8798;51.938;4.348;2023-03-01T03:12:37;102483.94;;;1.00;66.38
17362;BME280;8798;51.938;4.348;2023-03-01T03:15:09;102488.41;;;0.98;65.74
17362;BME280;8798;51.938;4.348;2023-03-01T03:17:41;102484.94;;;0.96;65.65
17362;BME280;8798;51.938;4.348;2023-03-01T03:20:13;102476.19;;;0.94;66.02
17362;BME280;8798;51.938;4.348;2023-03-01T03:22:46;102484.13;;;0.94;66.52
17362;BME280;8798;51.938;4.348;2023-03-01T03:25:14;102489.47;;;0.92;66.27
17362;BME280;8798;51.938;4.348;2023-03-01T03:27:44;102498.28;;;0.93;66.57
17362;BME280;8798;51.938;4.348;2023-03-01T03:30:16;102498.28;;;0.93;66.31
17362;BME280;8798;51.938;4.348;2023-03-01T03:32:46;102500.09;;;0.91;65.79
17362;BME280;8798;51.938;4.348;2023-03-01T03:35:20;102507.16;;;0.90;66.18
17362;BME280;8798;51.938;4.348;2023-03-01T03:37:49;102509.81;;;0.90;67.03
17362;BME280;8798;51.938;4.348;2023-03-01T03:40:34;102508.97;;;0.90;66.94
17362;BME280;8798;51.938;4.348;2023-03-01T03:43:02;102513.44;;;0.88;65.91
17362;BME280;8798;51.938;4.348;2023-03-01T03:45:32;102514.31;;;0.86;66.38
17362;BME280;8798;51.938;4.348;2023-03-01T03:48:02;102518.75;;;0.86;66.89
17362;BME280;8798;51.938;4.348;2023-03-01T03:50:32;102519.69;;;0.85;66.43
17362;BME280;8798;51.938;4.348;2023-03-01T03:53:01;102515.28;;;0.84;66.50
17362;BME280;8798;51.938;4.348;2023-03-01T03:55:29;102534.72;;;0.83;67.27
17362;BME280;8798;51.938;4.348;2023-03-01T03:57:57;102522.44;;;0.82;66.25
17362;BME280;8798;51.938;4.348;2023-03-01T04:00:28;102524.25;;;0.80;66.99
17362;BME280;8798;51.938;4.348;2023-03-01T04:02:57;102526.91;;;0.78;66.57
17362;BME280;8798;51.938;4.348;2023-03-01T04:05:26;102520.78;;;0.78;66.73
17362;BME280;8798;51.938;4.348;2023-03-01T04:07:54;102527.88;;;0.76;66.37
17362;BME280;8798;51.938;4.348;2023-03-01T04:10:29;102534.09;;;0.75;67.51
17362;BME280;8798;51.938;4.348;2023-03-01T04:12:58;102521.84;;;0.72;66.55
17362;BME280;8798;51.938;4.348;2023-03-01T04:15:26;102523.66;;;0.70;67.53
17362;BME280;8798;51.938;4.348;2023-03-01T04:17:55;102536.03;;;0.70;66.88
17362;BME280;8798;51.938;4.348;2023-03-01T04:20:26;102521.13;;;0.67;66.93
17362;BME280;8798;51.938;4.348;2023-03-01T04:22:57;102521.16;;;0.66;67.33
17362;BME280;8798;51.938;4.348;2023-03-01T04:25:26;102523.81;;;0.64;66.79
17362;BME280;8798;51.938;4.348;2023-03-01T04:27:54;102524.75;;;0.63;67.23
17362;BME280;8798;51.938;4.348;2023-03-01T04:30:21;102521.25;;;0.62;67.49
17362;BME280;8798;51.938;4.348;2023-03-01T04:32:51;102537.97;;;0.63;67.36
17362;BME280;8798;51.938;4.348;2023-03-01T04:35:19;102552.88;;;0.66;67.14
17362;BME280;8798;51.938;4.348;2023-03-01T04:37:49;102566.06;;;0.67;67.79
17362;BME280;8798;51.938;4.348;2023-03-01T04:40:17;102583.56;;;0.71;67.71
17362;BME280;8798;51.938;4.348;2023-03-01T04:42:45;102602.00;;;0.74;66.92
17362;BME280;8798;51.938;4.348;2023-03-01T04:45:13;102623.91;;;0.78;67.46
17362;BME280;8798;51.938;4.348;2023-03-01T04:47:43;102643.25;;;0.80;67.08
17362;BME280;8798;51.938;4.348;2023-03-01T04:50:14;102641.44;;;0.82;67.88
17362;BME280;8798;51.938;4.348;2023-03-01T04:52:42;102652.00;;;0.82;67.63
17362;BME280;8798;51.938;4.348;2023-03-01T04:55:12;102652.88;;;0.82;67.40
17362;BME280;8798;51.938;4.348;2023-03-01T04:57:40;102665.25;;;0.82;67.03
17362;BME280;8798;51.938;4.348;2023-03-01T05:00:10;102670.47;;;0.83;67.54
17362;BME280;8798;51.938;4.348;2023-03-01T05:02:48;102686.31;;;0.85;68.11
17362;BME280;8798;51.938;4.348;2023-03-01T05:05:25;102702.94;;;0.89;68.18
17362;BME280;8798;51.938;4.348;2023-03-01T05:07:54;102716.03;;;0.93;68.26
17362;BME280;8798;51.938;4.348;2023-03-01T05:10:24;102735.34;;;0.97;67.81
17362;BME280;8798;51.938;4.348;2023-03-01T05:12:53;102760.78;;;1.01;68.16
17362;BME280;8798;51.938;4.348;2023-03-01T05:15:20;102764.28;;;1.03;68.15
17362;BME280;8798;51.938;4.348;2023-03-01T05:17:52;102778.34;;;1.05;68.47
17362;BME280;8798;51.938;4.348;2023-03-01T05:20:20;102783.63;;;1.05;67.80
17362;BME280;8798;51.938;4.348;2023-03-01T05:22:50;102786.25;;;1.06;68.48
17362;BME280;8798;51.938;4.348;2023-03-01T05:25:18;102792.41;;;1.07;67.79
17362;BME280;8798;51.938;4.348;2023-03-01T05:27:49;102802.06;;;1.08;68.65
17362;BME280;8798;51.938;4.348;2023-03-01T05:30:17;102814.34;;;1.11;67.65
17362;BME280;8798;51.938;4.348;2023-03-01T05:32:47;102826.59;;;1.13;68.41
17362;BME280;8798;51.938;4.348;2023-03-01T05:35:16;102824.88;;;1.12;68.06
17362;BME280;8798;51.938;4.348;2023-03-01T05:37:47;102822.28;;;1.11;67.82
17362;BME280;8798;51.938;4.348;2023-03-01T05:40:18;102824.91;;;1.11;68.96
17362;BME280;8798;51.938;4.348;2023-03-01T05:42:49;102825.84;;;1.10;68.11
17362;BME280;8798;51.938;4.348;2023-03-01T05:45:17;102807.41;;;1.06;68.70
17362;BME280;8798;51.938;4.348;2023-03-01T05:47:47;102790.75;;;1.01;68.90
17362;BME280;8798;51.938;4.348;2023-03-01T05:50:17;102786.41;;;0.99;68.98
17362;BME280;8798;51.938;4.348;2023-03-01T05:52:47;102786.41;;;0.99;68.63
17362;BME280;8798;51.938;4.348;2023-03-01T05:55:16;102784.69;;;0.98;68.30
17362;BME280;8798;51.938;4.348;2023-03-01T05:57:45;102780.31;;;0.97;68.10
17362;BME280;8798;51.938;4.348;2023-03-01T06:00:17;102784.72;;;0.96;68.58
17362;BME280;8798;51.938;4.348;2023-03-01T06:02:45;102782.16;;;0.95;69.12
17362;BME280;8798;51.938;4.348;2023-03-01T06:05:14;102776.03;;;0.93;68.36
17362;BME280;8798;51.938;4.348;2023-03-01T06:07:42;102767.31;;;0.89;69.15
17362;BME280;8798;51.938;4.348;2023-03-01T06:10:11;102754.16;;;0.86;68.32
17362;BME280;8798;51.938;4.348;2023-03-01T06:12:41;102748.91;;;0.84;68.74
17362;BME280;8798;51.938;4.348;2023-03-01T06:15:11;102734.91;;;0.81;68.55
17362;BME280;8798;51.938;4.348;2023-03-01T06:17:42;102727.06;;;0.76;68.65
17362;BME280;8798;51.938;4.348;2023-03-01T06:20:12;102707.81;;;0.71;69.49
17362;BME280;8798;51.938;4.348;2023-03-01T06:22:41;102686.00;;;0.64;68.85
17362;BME280;8798;51.938;4.348;2023-03-01T06:25:10;102663.22;;;0.59;68.58
17362;BME280;8798;51.938;4.348;2023-03-01T06:27:39;102636.16;;;0.49;69.12
17362;BME280;8798;51.938;4.348;2023-03-01T06:30:08;102616.06;;;0.43;68.89
17362;BME280;8798;51.938;4.348;2023-03-01T06:32:37;102601.16;;;0.41;69.29
17362;BME280;8798;51.938;4.348;2023-03-01T06:35:11;102597.69;;;0.39;69.28
17362;BME280;8798;51.938;4.348;2023-03-01T06:37:40;102588.16;;;0.33;69.48
17362;BME280;8798;51.938;4.348;2023-03-01T06:40:09;102585.53;;;0.32;69.00
17362;BME280;8798;51.938;4.348;2023-03-01T06:42:40;102577.69;;;0.30;68.77
17362;BME280;8798;51.938;4.348;2023-03-01T06:45:10;102583.00;;;0.29;69.37
17362;BME280;8798;51.938;4.348;2023-03-01T06:47:38;102583.03;;;0.27;68.97
17362;BME280;8798;51.938;4.348;2023-03-01T06:50:06;102576.06;;;0.25;68.79
17362;BME280;8798;51.938;4.348;2023-03-01T06:52:36;102572.63;;;0.23;69.11
17362;BME280;8798;51.938;4.348;2023-03-01T06:55:04;102572.63;;;0.21;69.17
17362;BME280;8798;51.938;4.348;2023-03-01T06:57:32;102558.59;;;0.19;69.34
17362;BME280;8798;51.938;4.348;2023-03-01T07:00:00;102566.53;;;0.19;69.10
17362;BME280;8798;51.938;4.348;2023-03-01T07:02:28;102584.13;;;0.20;69.51
17362;BME280;8798;51.938;4.348;2023-03-01T07:04:56;102587.63;;;0.20;69.72
17362;BME280;8798;51.938;4.348;2023-03-01T07:07:24;102584.13;;;0.20;69.41
17362;BME280;8798;51.938;4.348;2023-03-01T07:09:53;102590.28;;;0.20;69.39
17362;BME280;8798;51.938;4.348;2023-03-01T07:12:21;102596.44;;;0.19;69.89
17362;BME280;8798;51.938;4.348;2023-03-01T07:14:49;102609.63;;;0.21;69.20
17362;BME280;8798;51.938;4.348;2023-03-01T07:17:16;102618.38;;;0.23;70.21
17362;BME280;8798;51.938;4.348;2023-03-01T07:19:45;102627.16;;;0.25;69.84
17362;BME280;8798;51.938;4.348;2023-03-01T07:22:13;102642.91;;;0.28;69.89
17362;BME280;8798;51.938;4.348;2023-03-01T07:24:41;102652.56;;;0.29;69.36
17362;BME280;8798;51.938;4.348;2023-03-01T07:27:10;102663.97;;;0.31;69.74
17362;BME280;8798;51.938;4.348;2023-03-01T07:29:38;102692.06;;;0.35;70.42
17362;BME280;8798;51.938;4.348;2023-03-01T07:32:06;102697.25;;;0.38;70.18
17362;BME280;8798;51.938;4.348;2023-03-01T07:34:34;102708.66;;;0.40;70.08
17362;BME280;8798;51.938;4.348;2023-03-01T07:37:02;102725.34;;;0.42;69.91
17362;BME280;8798;51.938;4.348;2023-03-01T07:39:30;102742.03;;;0.45;69.55
17362;BME280;8798;51.938;4.348;2023-03-01T07:41:58;102756.91;;;0.49;70.03
17362;BME280;8798;51.938;4.348;2023-03-01T07:44:28;102772.66;;;0.52;70.49
17362;BME280;8798;51.938;4.348;2023-03-01T07:46:56;102793.72;;;0.56;69.92
17362;BME280;8798;51.938;4.348;2023-03-01T07:49:24;102808.59;;;0.60;70.48
17362;BME280;8798;51.938;4.348;2023-03-01T07:51:53;102828.78;;;0.64;70.41
17362;BME280;8798;51.938;4.348;2023-03-01T07:54:22;102855.97;;;0.70;70.03
17362;BME280;8798;51.938;4.348;2023-03-01T07:56:50;102926.94;;;0.86;70.51
17362;BME280;8798;51.938;4.348;2023-03-01T07:59:18;102955.88;;;0.94;69.97
17362;BME280;8798;51.938;4.348;2023-03-01T08:01:47;102967.25;;;0.98;70.80
17362;BME280;8798;51.938;4.348;2023-03-01T08:04:14;102986.53;;;1.01;70.10
17362;BME280;8798;51.938;4.348;2023-03-01T08:06:42;102996.16;;;1.05;70.04
17362;BME280;8798;51.938;4.348;2023-03-01T08:09:10;103019.88;;;1.10;70.45
17362;BME280;8798;51.938;4.348;2023-03-01T08:11:38;103049.72;;;1.15;70.91
17362;BME280;8798;51.938;4.348;2023-03-01T08:14:06;103059.28;;;1.21;70.70
17362;BME280;8798;51.938;4.348;2023-03-01T08:16:34;103091.81;;;1.26;70.35
17362;BME280;8798;51.938;4.348;2023-03-01T08:19:08;103110.22;;;1.32;70.47
17362;BME280;8798;51.938;4.348;2023-03-01T08:21:37;103131.31;;;1.37;70.48
17362;BME280;8798;51.938;4.348;2023-03-01T08:24:06;103154.97;;;1.43;70.41
17362;BME280;8798;51.938;4.348;2023-03-01T08:26:36;103174.25;;;1.49;70.73
17362;BME280;8798;51.938;4.348;2023-03-01T08:29:05;103190.03;;;1.54;71.31
17362;BME280;8798;51.938;4.348;2023-03-01T08:31:34;103218.13;;;1.61;70.32
17362;BME280;8798;51.938;4.348;2023-03-01T08:34:04;103237.44;;;1.66;70.78
17362;BME280;8798;51.938;4.348;2023-03-01T08:36:36;103248.81;;;1.70;71.34
17362;BME280;8798;51.938;4.348;2023-03-01T08:39:05;103261.97;;;1.75;70.51
17362;BME280;8798;51.938;4.348;2023-03-01T08:41:33;103281.28;;;1.80;71.23
17362;BME280;8798;51.938;4.348;2023-03-01T08:44:01;103309.38;;;1.87;70.96
17362;BME280;8798;51.938;4.348;2023-03-01T08:46:32;103321.63;;;1.92;71.20
17362;BME280;8798;51.938;4.348;2023-03-01T08:49:03;103349.78;;;1.98;71.36
17362;BME280;8798;51.938;4.348;2023-03-01T08:51:31;103371.75;;;2.03;71.09
17362;BME280;8798;51.938;4.348;2023-03-01T08:54:05;103390.13;;;2.11;71.24
17362;BME280;8798;51.938;4.348;2023-03-01T08:56:34;103401.47;;;2.18;70.64
17362;BME280;8798;51.938;4.348;2023-03-01T08:59:01;103434.88;;;2.25;71.13
17362;BME280;8798;51.938;4.348;2023-03-01T09:01:30;103453.34;;;2.29;71.39
17362;BME280;8798;51.938;4.348;2023-03-01T09:03:57;103471.81;;;2.34;71.27
17362;BME280;8798;51.938;4.348;2023-03-01T09:06:25;103480.53;;;2.39;71.42
17362;BME280;8798;51.938;4.348;2023-03-01T09:08:53;103498.16;;;2.43;71.41
17362;BME280;8798;51.938;4.348;2023-03-01T09:11:22;103520.06;;;2.51;71.71
17362;BME280;8798;51.938;4.348;2023-03-01T09:13:51;103542.03;;;2.58;71.47
17362;BME280;8798;51.938;4.348;2023-03-01T09:16:20;103558.72;;;2.65;71.08
17362;BME280;8798;51.938;4.348;2023-03-01T09:18:49;103578.00;;;2.71;71.53
17362;BME280;8798;51.938;4.348;2023-03-01T09:21:19;103599.13;;;2.77;71.72
17362;BME280;8798;51.938;4.348;2023-03-01T09:24:05;103621.09;;;2.84;72.01
17362;BME280;8798;51.938;4.348;2023-03-01T09:26:35;103646.56;;;2.93;71.45
17362;BME280;8798;51.938;4.348;2023-03-01T09:29:03;103672.09;;;3.00;71.81
17362;BME280;8798;51.938;4.348;2023-03-01T09:31:31;103701.13;;;3.08;71.37
17362;BME280;8798;51.938;4.348;2023-03-01T09:33:58;103716.91;;;3.14;71.96
17362;BME280;8798;51.938;4.348;2023-03-01T09:36:26;103718.63;;;3.18;72.04
17362;BME280;8798;51.938;4.348;2023-03-01T09:38:56;103730.94;;;3.22;71.35
17362;BME280;8798;51.938;4.348;2023-03-01T09:41:43;103751.09;;;3.31;71.45
17362;BME280;8798;51.938;4.348;2023-03-01T09:44:20;103776.63;;;3.38;71.61
17362;BME280;8798;51.938;4.348;2023-03-01T09:46:50;103803.00;;;3.47;72.02
17362;BME280;8798;51.938;4.348;2023-03-01T09:49:20;103828.56;;;3.54;71.60
17362;BME280;8798;51.938;4.348;2023-03-01T09:51:56;103852.31;;;3.62;71.55
17362;BME280;8798;51.938;4.348;2023-03-01T09:54:25;103886.63;;;3.74;71.76
17362;BME280;8798;51.938;4.348;2023-03-01T09:57:01;103922.72;;;3.84;71.66
17362;BME280;8798;51.938;4.348;2023-03-01T09:59:45;103926.16;;;3.90;72.12
17362;BME280;8798;51.938;4.348;2023-03-01T10:02:25;103941.13;;;3.95;71.26
17362;BME280;8798;51.938;4.348;2023-03-01T10:05:04;103960.47;;;4.03;72.06
17362;BME280;8798;51.938;4.348;2023-03-01T10:07:38;103963.94;;;4.07;71.75
17362;BME280;8798;51.938;4.348;2023-03-01T10:10:18;103971.81;;;4.12;71.84
17362;BME280;8798;51.938;4.348;2023-03-01T10:12:52;103999.09;;;4.21;71.88
17362;BME280;8798;51.938;4.348;2023-03-01T10:15:34;104024.59;;;4.31;71.96
17362;BME280;8798;51.938;4.348;2023-03-01T10:18:06;104060.75;;;4.42;71.66
17362;BME280;8798;51.938;4.348;2023-03-01T10:20:44;104099.56;;;4.53;71.71
17362;BME280;8798;51.938;4.348;2023-03-01T10:23:14;104109.13;;;4.62;71.32
17362;BME280;8798;51.938;4.348;2023-03-01T10:25:49;104120.59;;;4.67;71.40
17362;BME280;8798;51.938;4.348;2023-03-01T10:28:26;104125.78;;;4.73;71.46
17362;BME280;8798;51.938;4.348;2023-03-01T10:30:57;104146.03;;;4.81;71.22
17362;BME280;8798;51.938;4.348;2023-03-01T10:33:29;104154.78;;;4.87;71.07
17362;BME280;8798;51.938;4.348;2023-03-01T10:35:58;104167.97;;;4.92;71.16
17362;BME280;8798;51.938;4.348;2023-03-01T10:38:49;104155.50;;;4.95;71.12
17362;BME280;8798;51.938;4.348;2023-03-01T10:41:18;104165.19;;;5.00;70.85
17362;BME280;8798;51.938;4.348;2023-03-01T10:43:49;104177.50;;;5.05;71.15
17362;BME280;8798;51.938;4.348;2023-03-01T10:46:26;104177.34;;;5.11;70.67
17362;BME280;8798;51.938;4.348;2023-03-01T10:49:13;104185.25;;;5.16;70.46
17362;BME280;8798;51.938;4.348;2023-03-01T10:51:43;104181.63;;;5.18;71.19
17362;BME280;8798;51.938;4.348;2023-03-01T10:54:20;104203.69;;;5.27;70.55
17362;BME280;8798;51.938;4.348;2023-03-01T10:56:50;104216.84;;;5.34;70.60
17362;BME280;8798;51.938;4.348;2023-03-01T10:59:26;104228.22;;;5.41;70.12
17362;BME280;8798;51.938;4.348;2023-03-01T11:02:08;104235.19;;;5.48;70.14
17362;BME280;8798;51.938;4.348;2023-03-01T11:04:58;104252.78;;;5.55;69.74
17362;BME280;8798;51.938;4.348;2023-03-01T11:07:27;104237.66;;;5.56;69.77
17362;BME280;8798;51.938;4.348;2023-03-01T11:09:55;104247.28;;;5.63;69.90
17362;BME280;8798;51.938;4.348;2023-03-01T11:12:24;104254.25;;;5.70;69.75
17362;BME280;8798;51.938;4.348;2023-03-01T11:14:54;104263.00;;;5.75;69.89
17362;BME280;8798;51.938;4.348;2023-03-01T11:17:25;104250.53;;;5.76;69.86
17362;BME280;8798;51.938;4.348;2023-03-01T11:20:10;104250.50;;;5.79;69.31
17362;BME280;8798;51.938;4.348;2023-03-01T11:22:47;104245.97;;;5.82;68.79
17362;BME280;8798;51.938;4.348;2023-03-01T11:25:17;104253.84;;;5.87;69.23
17362;BME280;8798;51.938;4.348;2023-03-01T11:27:47;104256.38;;;5.93;68.27
17362;BME280;8798;51.938;4.348;2023-03-01T11:30:21;104260.72;;;5.99;68.62
17362;BME280;8798;51.938;4.348;2023-03-01T11:33:01;104261.59;;;6.01;69.28
17362;BME280;8798;51.938;4.348;2023-03-01T11:35:32;104227.78;;;6.00;68.69
17362;BME280;8798;51.938;4.348;2023-03-01T11:38:09;104248.06;;;6.07;68.42
17362;BME280;8798;51.938;4.348;2023-03-01T11:40:45;104263.91;;;6.15;68.89
17362;BME280;8798;51.938;4.348;2023-03-01T11:43:19;104277.03;;;6.22;68.44
17362;BME280;8798;51.938;4.348;2023-03-01T11:46:04;104275.19;;;6.26;67.99
17362;BME280;8798;51.938;4.348;2023-03-01T11:48:47;104255.59;;;6.25;68.03
17362;BME280;8798;51.938;4.348;2023-03-01T11:51:23;104239.56;;;6.27;67.37
17362;BME280;8798;51.938;4.348;2023-03-01T11:54:18;104250.97;;;6.34;67.49
17362;BME280;8798;51.938;4.348;2023-03-01T11:56:52;104250.88;;;6.38;67.95
17362;BME280;8798;51.938;4.348;2023-03-01T11:59:44;104261.34;;;6.46;67.44
17362;BME280;8798;51.938;4.348;2023-03-01T12:02:42;104255.03;;;6.49;68.04
17362;BME280;8798;51.938;4.348;2023-03-01T12:08:34;104204.41;;;6.45;66.30
17362;BME280;8798;51.938;4.348;2023-03-01T12:11:09;104211.28;;;6.53;67.31
17362;BME280;8798;51.938;4.348;2023-03-01T12:16:50;104262.34;;;6.75;66.49
17362;BME280;8798;51.938;4.348;2023-03-01T12:19:38;104275.50;;;6.82;66.98
17362;BME280;8798;51.938;4.348;2023-03-01T12:22:17;104266.53;;;6.85;66.42
17362;BME280;8798;51.938;4.348;2023-03-01T12:28:04;104280.34;;;7.01;66.31
17362;BME280;8798;51.938;4.348;2023-03-01T12:30:45;104269.66;;;7.01;65.91
17362;BME280;8798;51.938;4.348;2023-03-01T12:33:23;104259.81;;;7.03;65.49
17362;BME280;8798;51.938;4.348;2023-03-01T12:39:07;104242.69;;;7.08;65.63
17362;BME280;8798;51.938;4.348;2023-03-01T12:41:46;104232.78;;;7.12;66.06
17362;BME280;8798;51.938;4.348;2023-03-01T12:44:57;104209.66;;;7.11;65.40
17362;BME280;8798;51.938;4.348;2023-03-01T12:47:46;104208.66;;;7.15;65.91
17362;BME280;8798;51.938;4.348;2023-03-01T12:50:23;104212.94;;;7.21;66.24
17362;BME280;8798;51.938;4.348;2023-03-01T12:52:55;104211.94;;;7.25;65.72
17362;BME280;8798;51.938;4.348;2023-03-01T12:55:30;104211.81;;;7.29;65.54
17362;BME280;8798;51.938;4.348;2023-03-01T12:58:06;104219.59;;;7.37;65.56
17362;BME280;8798;51.938;4.348;2023-03-01T13:00:43;104242.56;;;7.44;64.81
17362;BME280;8798;51.938;4.348;2023-03-01T13:03:19;104247.66;;;7.52;65.30
17362;BME280;8798;51.938;4.348;2023-03-01T13:06:02;104252.81;;;7.58;64.28
17362;BME280;8798;51.938;4.348;2023-03-01T13:08:41;104264.22;;;7.65;64.53
17362;BME280;8798;51.938;4.348;2023-03-01T13:11:17;104279.09;;;7.73;65.26
17362;BME280;8798;51.938;4.348;2023-03-01T13:13:45;104284.25;;;7.80;64.75
17362;BME280;8798;51.938;4.348;2023-03-01T13:16:39;104284.06;;;7.86;64.09
17362;BME280;8798;51.938;4.348;2023-03-01T13:19:13;104264.44;;;7.85;64.49
17362;BME280;8798;51.938;4.348;2023-03-01T13:21:43;104261.66;;;7.88;64.64
17362;BME280;8798;51.938;4.348;2023-03-01T13:24:26;104255.31;;;7.92;63.64
17362;BME280;8798;51.938;4.348;2023-03-01T13:27:21;104282.66;;;8.02;63.92
17362;BME280;8798;51.938;4.348;2023-03-01T13:29:52;104313.44;;;8.15;64.21
17362;BME280;8798;51.938;4.348;2023-03-01T13:32:22;104340.78;;;8.27;63.31
17362;BME280;8798;51.938;4.348;2023-03-01T13:38:39;104391.66;;;8.55;63.37
17362;BME280;8798;51.938;4.348;2023-03-01T13:41:14;104392.47;;;8.58;63.27
17362;BME280;8798;51.938;4.348;2023-03-01T13:43:44;104386.06;;;8.63;63.58
17362;BME280;8798;51.938;4.348;2023-03-01T13:46:17;104376.16;;;8.65;63.12
17362;BME280;8798;51.938;4.348;2023-03-01T13:48:49;104339.59;;;8.64;62.61
17362;BME280;8798;51.938;4.348;2023-03-01T13:51:21;104353.72;;;8.69;63.07